Time;durP1;ratioP1;P1;durP2;ratioP2;P2;SDS_P1;SDS_P2;PMS_P1;PMS_P2;Temp;Humidity;BMP_temperature;BMP_pressure;BME280_temperature;BME280_humidity;BME280_pressure;Samples;Min_cycle;Max_cycle;Signal;HPM_P1;HPM_P2
2023/03/05 00:00:09;;;;;;;10.90;2.67;;;;;;;3.60;100.00;102104.63;5068485;28;20050;-66
2023/03/05 00:02:34;;;;;;;10.27;2.27;;;;;;;3.58;100.00;102105.31;5068895;28;20230;-66
2023/03/05 00:04:59;;;;;;;9.53;2.20;;;;;;;3.56;100.00;102106.84;5068416;28;20060;-66
2023/03/05 00:07:25;;;;;;;8.80;2.70;;;;;;;3.54;100.00;102105.81;5068235;28;20013;-66
2023/03/05 00:09:50;;;;;;;7.23;2.00;;;;;;;3.52;100.00;102110.81;5068512;28;20448;-66
2023/03/05 00:12:16;;;;;;;9.30;2.87;;;;;;;3.50;100.00;102109.81;5068286;28;20063;-66
2023/03/05 00:14:41;;;;;;;9.83;2.57;;;;;;;3.49;100.00;102118.25;5068130;28;20078;-66
2023/03/05 00:17:06;;;;;;;7.83;2.40;;;;;;;3.47;100.00;102109.56;5067605;28;20024;-67
2023/03/05 00:19:32;;;;;;;5.33;2.23;;;;;;;3.44;100.00;102105.06;5067890;28;20051;-67
2023/03/05 00:21:57;;;;;;;7.17;1.60;;;;;;;3.43;100.00;102102.38;5068134;28;20024;-67
2023/03/05 00:24:22;;;;;;;9.20;2.07;;;;;;;3.41;100.00;102098.78;5067713;28;20024;-67
2023/03/05 00:26:48;;;;;;;4.80;1.93;;;;;;;3.39;100.00;102098.66;5067470;28;20362;-66
2023/03/05 00:29:17;;;;;;;8.97;2.07;;;;;;;3.38;100.00;102103.69;5067770;28;20025;-67
2023/03/05 00:31:43;;;;;;;5.77;1.97;;;;;;;3.35;100.00;102096.63;5067632;28;20036;-67
2023/03/05 00:34:12;;;;;;;9.27;2.13;;;;;;;3.34;100.00;102093.19;5067977;28;20054;-67
2023/03/05 00:36:45;;;;;;;5.77;2.13;;;;;;;3.31;100.00;102095.47;5067842;28;20099;-66
2023/03/05 00:39:12;;;;;;;7.30;1.67;;;;;;;3.28;100.00;102090.09;5067941;28;20028;-67
2023/03/05 00:41:37;;;;;;;6.47;2.33;;;;;;;3.24;100.00;102086.38;5067826;28;20055;-67
2023/03/05 00:44:02;;;;;;;6.93;2.07;;;;;;;3.20;100.00;102086.03;5068162;28;20047;-67
2023/03/05 00:46:28;;;;;;;5.67;2.13;;;;;;;3.18;100.00;102077.31;5067479;28;20017;-66
2023/03/05 00:48:54;;;;;;;6.43;2.40;;;;;;;3.19;100.00;102079.09;5067759;28;20028;-66
2023/03/05 00:51:19;;;;;;;8.40;2.47;;;;;;;3.17;100.00;102068.72;5067805;28;20377;-66
2023/03/05 00:53:45;;;;;;;7.13;2.37;;;;;;;3.17;100.00;102078.06;5067925;28;20040;-67
2023/03/05 00:56:10;;;;;;;10.23;2.30;;;;;;;3.17;100.00;102067.81;5067077;28;20044;-66
2023/03/05 00:58:36;;;;;;;5.63;2.20;;;;;;;3.16;100.00;102071.16;5067673;28;20525;-67
2023/03/05 01:01:02;;;;;;;6.67;2.53;;;;;;;3.17;100.00;102078.06;5067516;28;20055;-66
2023/03/05 01:03:28;;;;;;;10.27;2.70;;;;;;;3.16;100.00;102071.16;5067953;28;20085;-66
2023/03/05 01:05:53;;;;;;;9.33;2.73;;;;;;;3.16;100.00;102068.59;5067219;28;20419;-66
2023/03/05 01:08:19;;;;;;;9.10;2.40;;;;;;;3.16;100.00;102066.03;5068064;28;20033;-67
2023/03/05 01:10:44;;;;;;;7.40;2.17;;;;;;;3.15;100.00;102059.13;5067310;28;20392;-66
2023/03/05 01:13:10;;;;;;;7.87;2.27;;;;;;;3.14;100.00;102063.34;5067541;28;20024;-66
2023/03/05 01:15:35;;;;;;;7.57;2.87;;;;;;;3.14;100.00;102052.19;5067474;28;20499;-67
2023/03/05 01:18:00;;;;;;;5.00;1.97;;;;;;;3.12;100.00;102046.97;5067163;28;20028;-66
2023/03/05 01:20:26;;;;;;;10.37;2.73;;;;;;;3.10;100.00;102046.84;5067421;28;20024;-66
2023/03/05 01:22:52;;;;;;;6.73;1.90;;;;;;;3.11;100.00;102050.31;5067359;28;20028;-66
2023/03/05 01:25:17;;;;;;;10.20;2.50;;;;;;;3.10;100.00;102043.38;5067435;28;20024;-66
2023/03/05 01:27:43;;;;;;;6.70;2.10;;;;;;;3.10;100.00;102039.16;5067205;28;20070;-66
2023/03/05 01:30:09;;;;;;;11.90;2.70;;;;;;;3.09;100.00;102034.81;5065840;28;20453;-66
2023/03/05 01:32:35;;;;;;;5.73;2.20;;;;;;;3.09;100.00;102029.69;5067067;28;20029;-66
2023/03/05 01:35:01;;;;;;;9.27;2.10;;;;;;;3.09;100.00;102029.69;5066939;28;20093;-66
2023/03/05 01:37:27;;;;;;;9.73;2.87;;;;;;;3.07;100.00;102026.09;5067191;28;20056;-66
2023/03/05 01:39:52;;;;;;;5.27;2.50;;;;;;;3.06;100.00;102019.16;5067226;28;20052;-66
2023/03/05 01:42:19;;;;;;;8.43;2.20;;;;;;;3.07;100.00;102020.06;5066597;28;20059;-67
2023/03/05 01:45:01;;;;;;;6.40;2.63;;;;;;;3.07;100.00;102015.84;5067223;28;20503;-66
2023/03/05 01:47:26;;;;;;;7.60;2.23;;;;;;;3.07;100.00;102017.50;5067230;28;20024;-66
2023/03/05 01:49:53;;;;;;;6.87;1.97;;;;;;;3.07;100.00;102014.94;5067085;28;20452;-66
2023/03/05 01:52:21;;;;;;;7.67;2.00;;;;;;;3.07;100.00;102004.72;5067301;28;20132;-66
2023/03/05 01:54:50;;;;;;;9.43;2.27;;;;;;;3.05;100.00;101999.47;5066484;28;20032;-66
2023/03/05 01:57:20;;;;;;;6.17;2.93;;;;;;;3.05;100.00;101996.91;5066702;28;20116;-66
2023/03/05 01:59:49;;;;;;;8.03;2.10;;;;;;;3.03;100.00;101993.31;5066807;28;20028;-66
2023/03/05 02:02:16;;;;;;;8.53;2.73;;;;;;;3.05;100.00;101999.47;5066906;28;20025;-66
2023/03/05 02:04:49;;;;;;;8.87;2.33;;;;;;;3.04;100.00;101994.22;5066934;28;20048;-66
2023/03/05 02:07:15;;;;;;;8.93;2.50;;;;;;;3.03;100.00;101983.06;5066766;28;20028;-66
2023/03/05 02:09:41;;;;;;;7.43;2.57;;;;;;;3.03;100.00;101983.06;5066790;28;20024;-67
2023/03/05 02:12:09;;;;;;;10.47;2.73;;;;;;;3.00;100.00;101970.91;5067084;28;20048;-66
2023/03/05 02:14:35;;;;;;;8.93;2.50;;;;;;;3.00;100.00;101972.59;5066923;28;20028;-66
2023/03/05 02:17:00;;;;;;;8.43;2.30;;;;;;;2.99;100.00;101970.78;5066165;28;20098;-66
2023/03/05 02:19:26;;;;;;;6.23;2.40;;;;;;;2.98;100.00;101969.00;5066719;28;20024;-66
2023/03/05 02:21:51;;;;;;;4.43;2.20;;;;;;;2.95;100.00;101963.63;5066626;28;20388;-66
2023/03/05 02:24:33;;;;;;;8.03;1.90;;;;;;;2.94;100.00;101961.81;5066691;28;20445;-66
2023/03/05 02:26:59;;;;;;;5.33;2.60;;;;;;;2.93;100.00;101962.59;5066536;28;20032;-66
2023/03/05 02:29:26;;;;;;;8.73;2.03;;;;;;;2.90;100.00;101955.56;5066649;28;20519;-66
2023/03/05 02:31:52;;;;;;;5.97;2.30;;;;;;;2.87;100.00;101956.22;5065980;28;20067;-66
2023/03/05 02:34:17;;;;;;;7.73;2.37;;;;;;;2.86;100.00;101949.28;5066887;28;20028;-66
2023/03/05 02:36:42;;;;;;;7.53;2.07;;;;;;;2.84;100.00;101950.81;5066452;28;20075;-66
2023/03/05 02:39:08;;;;;;;10.23;2.40;;;;;;;2.82;100.00;101944.72;5066430;28;20143;-66
2023/03/05 02:41:34;;;;;;;6.00;1.93;;;;;;;2.81;100.00;101953.16;5066736;28;20020;-66
2023/03/05 02:43:59;;;;;;;8.63;2.27;;;;;;;2.79;100.00;101948.69;5066459;28;20211;-66
2023/03/05 02:46:25;;;;;;;10.27;2.30;;;;;;;2.78;100.00;101939.19;5068080;28;20109;-66
2023/03/05 02:48:50;;;;;;;8.33;2.30;;;;;;;2.77;100.00;101938.28;5070024;28;20356;-67
2023/03/05 02:51:16;;;;;;;4.77;1.67;;;;;;;2.75;100.00;101939.84;5069849;28;20051;-66
2023/03/05 02:53:41;;;;;;;7.63;2.00;;;;;;;2.72;100.00;101926.78;5069825;28;20038;-66
2023/03/05 02:56:06;;;;;;;4.80;1.80;;;;;;;2.72;100.00;101924.22;5069434;28;20218;-66
2023/03/05 02:58:32;;;;;;;10.87;2.37;;;;;;;2.73;100.00;101924.38;5069796;28;20373;-66
2023/03/05 03:00:57;;;;;;;6.40;1.77;;;;;;;2.76;100.00;101926.28;5069729;28;20043;-66
2023/03/05 03:03:22;;;;;;;4.43;1.83;;;;;;;2.77;100.00;101922.94;5070077;28;20203;-66
2023/03/05 03:05:48;;;;;;;8.07;2.00;;;;;;;2.76;100.00;101922.06;5069547;28;20024;-66
2023/03/05 03:08:14;;;;;;;9.10;2.00;;;;;;;2.77;100.00;101915.25;5069556;28;20472;-66
2023/03/05 03:10:39;;;;;;;5.87;1.87;;;;;;;2.79;100.00;101915.41;5069958;28;20033;-66
2023/03/05 03:13:04;;;;;;;9.17;2.13;;;;;;;2.78;100.00;101909.38;5069683;28;20158;-66
2023/03/05 03:15:30;;;;;;;7.20;2.17;;;;;;;2.77;100.00;101897.31;5069620;28;20077;-66
2023/03/05 03:17:55;;;;;;;5.20;1.90;;;;;;;2.76;100.00;101896.47;5069515;28;20036;-66
2023/03/05 03:20:20;;;;;;;5.20;1.70;;;;;;;2.75;100.00;101888.66;5068886;28;20105;-66
2023/03/05 03:22:46;;;;;;;10.20;2.00;;;;;;;2.73;100.00;101895.31;5069571;28;20032;-66
2023/03/05 03:25:17;;;;;;;6.70;2.43;;;;;;;2.72;100.00;101898.63;5069463;28;20419;-66
2023/03/05 03:27:43;;;;;;;7.00;2.10;;;;;;;2.71;100.00;101896.84;5069288;28;20020;-66
2023/03/05 03:30:09;;;;;;;6.30;1.77;;;;;;;2.69;100.00;101886.47;5068542;28;20077;-66
2023/03/05 03:32:35;;;;;;;9.17;2.00;;;;;;;2.64;100.00;101868.19;5069590;28;20131;-66
2023/03/05 03:35:00;;;;;;;6.17;2.23;;;;;;;2.59;100.00;101871.16;5069022;28;20107;-66
2023/03/05 03:37:26;;;;;;;7.73;2.50;;;;;;;2.50;100.00;101864.50;5068925;28;20032;-66
2023/03/05 03:39:51;;;;;;;11.70;2.50;;;;;;;2.46;100.00;101865.03;5068908;28;20024;-66
2023/03/05 03:42:17;;;;;;;9.80;2.60;;;;;;;2.42;100.00;101856.97;5069079;28;20021;-66
2023/03/05 03:44:43;;;;;;;8.13;2.13;;;;;;;2.42;100.00;101859.53;5069057;28;20016;-66
2023/03/05 03:47:08;;;;;;;8.17;2.53;;;;;;;2.40;100.00;101855.19;5068938;28;20023;-66
2023/03/05 03:49:33;;;;;;;9.60;2.50;;;;;;;2.43;100.00;101857.09;5068800;28;20381;-66
2023/03/05 03:51:59;;;;;;;9.63;2.20;;;;;;;2.42;100.00;101851.84;5068686;28;20127;-66
2023/03/05 03:54:24;;;;;;;10.63;2.30;;;;;;;2.44;100.00;101852.88;5068473;28;20463;-66
2023/03/05 03:56:50;;;;;;;6.70;1.87;;;;;;;2.45;100.00;101852.09;5068761;28;20422;-66
2023/03/05 03:59:15;;;;;;;7.43;2.57;;;;;;;2.47;100.00;101845.44;5068191;28;20454;-66
2023/03/05 04:01:40;;;;;;;10.77;2.60;;;;;;;2.49;100.00;101855.03;5068701;28;20017;-66
2023/03/05 04:04:06;;;;;;;8.83;2.47;;;;;;;2.51;100.00;101857.72;5068399;28;20025;-66
2023/03/05 04:06:32;;;;;;;5.77;2.60;;;;;;;2.53;100.00;101851.06;5068754;28;20544;-66
2023/03/05 04:08:58;;;;;;;6.40;1.93;;;;;;;2.52;100.00;101850.16;5068675;28;20047;-66
2023/03/05 04:11:23;;;;;;;7.53;2.50;;;;;;;2.52;100.00;101849.25;5068835;28;20052;-66
2023/03/05 04:13:49;;;;;;;8.80;2.60;;;;;;;2.54;100.00;101841.75;5067826;28;20025;-66
2023/03/05 04:16:15;;;;;;;10.37;2.67;;;;;;;2.54;100.00;101846.84;5068123;28;20024;-66
2023/03/05 04:18:41;;;;;;;9.63;2.90;;;;;;;2.53;100.00;101835.72;5068222;28;20090;-66
2023/03/05 04:21:07;;;;;;;8.13;3.17;;;;;;;2.52;100.00;101829.69;5068369;28;20024;-66
2023/03/05 04:23:33;;;;;;;11.07;3.50;;;;;;;2.53;100.00;101838.28;5068441;28;20052;-66
2023/03/05 04:25:58;;;;;;;7.13;2.70;;;;;;;2.53;100.00;101822.94;5068110;28;20063;-66
2023/03/05 04:28:24;;;;;;;7.53;2.80;;;;;;;2.54;100.00;101828.94;5068252;28;20025;-66
2023/03/05 04:30:49;;;;;;;10.97;3.57;;;;;;;2.53;100.00;101820.38;5068193;28;20508;-66
2023/03/05 04:33:14;;;;;;;11.20;3.67;;;;;;;2.54;100.00;101821.28;5068090;28;20060;-66
2023/03/05 04:35:40;;;;;;;10.40;3.03;;;;;;;2.51;100.00;101817.69;5068426;28;20032;-66
2023/03/05 04:38:05;;;;;;;7.40;3.00;;;;;;;2.51;100.00;101814.22;5067496;28;20042;-66
2023/03/05 04:40:30;;;;;;;7.33;3.73;;;;;;;2.51;100.00;101821.91;5068311;28;20020;-66
2023/03/05 04:42:56;;;;;;;7.17;3.43;;;;;;;2.50;100.00;101820.13;5068019;28;20515;-67
2023/03/05 04:45:21;;;;;;;10.63;3.83;;;;;;;2.49;100.00;101808.09;5068043;28;20209;-66
2023/03/05 04:47:46;;;;;;;5.90;3.63;;;;;;;2.49;100.00;101819.22;5067785;28;20035;-66
2023/03/05 04:50:12;;;;;;;7.80;3.60;;;;;;;2.49;100.00;101815.75;5068118;28;20028;-66
2023/03/05 04:52:42;;;;;;;8.30;4.20;;;;;;;2.48;100.00;101813.97;5067049;28;20052;-66
2023/03/05 04:55:09;;;;;;;6.03;3.93;;;;;;;2.47;100.00;101810.53;5067806;28;20020;-66
2023/03/05 04:57:35;;;;;;;9.77;4.17;;;;;;;2.47;100.00;101807.06;5067350;28;20054;-66
2023/03/05 05:00:04;;;;;;;10.17;4.53;;;;;;;2.46;100.00;101807.84;5067218;28;20028;-66
2023/03/05 05:02:29;;;;;;;7.50;4.50;;;;;;;2.48;100.00;101801.19;5067596;28;20035;-66
2023/03/05 05:04:54;;;;;;;11.17;5.20;;;;;;;2.47;100.00;101801.94;5067517;28;20021;-66
2023/03/05 05:07:20;;;;;;;9.87;5.57;;;;;;;2.46;100.00;101795.03;5067408;28;20020;-66
2023/03/05 05:09:45;;;;;;;13.57;5.27;;;;;;;2.44;100.00;101794.94;5067433;28;20077;-66
2023/03/05 05:12:11;;;;;;;8.27;5.10;;;;;;;2.45;100.00;101795.81;5067216;28;20400;-66
2023/03/05 05:14:36;;;;;;;8.03;4.47;;;;;;;2.45;100.00;101785.56;5067434;28;20024;-66
2023/03/05 05:17:04;;;;;;;11.43;5.10;;;;;;;2.44;100.00;101794.94;5066858;28;20078;-66
2023/03/05 05:19:30;;;;;;;8.97;4.50;;;;;;;2.45;100.00;101794.16;5067837;28;20028;-66
2023/03/05 05:21:55;;;;;;;7.57;4.30;;;;;;;2.44;100.00;101788.91;5067467;28;20464;-66
2023/03/05 05:24:21;;;;;;;10.07;4.73;;;;;;;2.44;100.00;101788.91;5067124;28;20052;-66
2023/03/05 05:26:46;;;;;;;11.23;5.00;;;;;;;2.44;100.00;101784.69;5066750;28;20025;-66
2023/03/05 05:29:11;;;;;;;12.17;4.97;;;;;;;2.43;100.00;101780.31;5066966;28;20389;-66
2023/03/05 05:31:36;;;;;;;7.80;4.93;;;;;;;2.45;100.00;101785.56;5066933;28;20040;-66
2023/03/05 05:34:02;;;;;;;12.17;5.10;;;;;;;2.45;100.00;101780.44;5067174;28;20434;-66
2023/03/05 05:36:27;;;;;;;9.73;5.20;;;;;;;2.45;100.00;101780.44;5066789;28;20536;-66
2023/03/05 05:38:53;;;;;;;9.83;4.97;;;;;;;2.42;100.00;101775.09;5067283;28;20036;-66
2023/03/05 05:41:19;;;;;;;11.97;5.10;;;;;;;2.40;100.00;101774.97;5067700;28;20033;-66
2023/03/05 05:43:44;;;;;;;8.50;4.80;;;;;;;2.42;100.00;101777.66;5067517;28;20047;-66
2023/03/05 05:46:13;;;;;;;12.90;4.93;;;;;;;2.40;100.00;101769.84;5066771;28;20499;-66
2023/03/05 05:48:39;;;;;;;12.37;5.07;;;;;;;2.40;100.00;101768.19;5067221;28;20028;-66
2023/03/05 05:51:07;;;;;;;15.03;5.87;;;;;;;2.41;100.00;101769.09;5066896;28;20056;-67
2023/03/05 05:53:32;;;;;;;15.53;5.33;;;;;;;2.40;100.00;101763.09;5066843;28;20032;-66
2023/03/05 05:55:57;;;;;;;11.17;4.60;;;;;;;2.40;100.00;101762.19;5066677;28;20421;-66
2023/03/05 05:58:23;;;;;;;11.37;5.27;;;;;;;2.39;100.00;101761.28;5066865;28;20028;-66
2023/03/05 06:00:48;;;;;;;11.83;5.23;;;;;;;2.39;100.00;101756.16;5065613;28;20074;-66
2023/03/05 06:03:13;;;;;;;11.50;5.43;;;;;;;2.39;100.00;101751.03;5066836;28;20024;-66
2023/03/05 06:05:41;;;;;;;10.83;5.40;;;;;;;2.38;100.00;101753.47;5067198;28;20040;-66
2023/03/05 06:08:06;;;;;;;7.57;4.83;;;;;;;2.37;100.00;101752.63;5066547;28;20025;-66
2023/03/05 06:10:32;;;;;;;9.60;5.23;;;;;;;2.35;100.00;101743.91;5066437;28;20024;-66
2023/03/05 06:12:57;;;;;;;12.53;5.00;;;;;;;2.34;100.00;101739.56;5065081;28;20020;-66
2023/03/05 06:15:22;;;;;;;9.10;5.60;;;;;;;2.33;100.00;101739.44;5064712;28;20025;-66
2023/03/05 06:17:48;;;;;;;11.10;5.03;;;;;;;2.32;100.00;101743.63;5064683;28;20029;-66
2023/03/05 06:20:13;;;;;;;11.23;5.40;;;;;;;2.31;100.00;101740.97;5065039;28;20419;-66
2023/03/05 06:22:39;;;;;;;12.60;5.33;;;;;;;2.29;100.00;101738.28;5068106;28;20021;-66
2023/03/05 06:25:08;;;;;;;9.67;5.20;;;;;;;2.30;100.00;101744.31;5067438;28;20498;-66
2023/03/05 06:27:34;;;;;;;13.07;5.47;;;;;;;2.30;100.00;101739.19;5068465;28;20392;-66
2023/03/05 06:30:00;;;;;;;8.77;5.90;;;;;;;2.31;100.00;101736.75;5070173;28;20445;-66
2023/03/05 06:32:26;;;;;;;12.50;6.33;;;;;;;2.32;100.00;101738.53;5070693;28;20172;-66
2023/03/05 06:34:51;;;;;;;13.27;6.80;;;;;;;2.34;100.00;101736.13;5070756;28;20419;-66
2023/03/05 06:37:16;;;;;;;7.10;5.20;;;;;;;2.36;100.00;101745.69;5069965;28;20029;-66
2023/03/05 06:39:42;;;;;;;10.37;6.33;;;;;;;2.36;100.00;101745.69;5070325;28;20028;-66
2023/03/05 06:42:07;;;;;;;11.17;5.40;;;;;;;2.37;100.00;101747.50;5070204;28;20052;-66
2023/03/05 06:44:33;;;;;;;14.40;7.20;;;;;;;2.39;100.00;101740.81;5070081;28;20029;-66
2023/03/05 06:46:58;;;;;;;16.33;6.03;;;;;;;2.41;100.00;101743.50;5070157;28;20020;-66
2023/03/05 06:49:23;;;;;;;9.50;5.67;;;;;;;2.42;100.00;101744.38;5070102;28;20025;-66
2023/03/05 06:51:48;;;;;;;17.07;6.77;;;;;;;2.44;100.00;101748.88;5069705;28;20052;-66
2023/03/05 06:54:15;;;;;;;8.67;5.83;;;;;;;2.45;100.00;101742.06;5070121;28;20025;-66
2023/03/05 06:56:44;;;;;;;10.63;6.60;;;;;;;2.44;100.00;101742.84;5069413;28;20056;-66
2023/03/05 06:59:10;;;;;;;12.00;6.00;;;;;;;2.44;100.00;101748.88;5069938;28;20028;-66
2023/03/05 07:01:36;;;;;;;12.27;5.97;;;;;;;2.44;100.00;101747.97;5070591;28;20028;-67
2023/03/05 07:04:02;;;;;;;9.10;6.00;;;;;;;2.44;100.00;101746.31;5070357;28;20388;-66
2023/03/05 07:06:30;;;;;;;11.67;6.27;;;;;;;2.46;100.00;101746.44;5069950;28;20025;-66
2023/03/05 07:08:56;;;;;;;10.37;5.70;;;;;;;2.46;100.00;101741.31;5069110;28;20029;-66
2023/03/05 07:11:22;;;;;;;9.80;5.17;;;;;;;2.47;100.00;101744.00;5069970;28;20051;-66
2023/03/05 07:13:48;;;;;;;8.40;4.90;;;;;;;2.49;100.00;101746.66;5069426;28;20056;-66
2023/03/05 07:16:27;;;;;;;12.87;5.57;;;;;;;2.51;100.00;101738.34;5069827;28;20039;-66
2023/03/05 07:18:55;;;;;;;9.40;4.87;;;;;;;2.55;100.00;101736.94;5069070;28;20033;-66
2023/03/05 07:21:23;;;;;;;11.10;5.47;;;;;;;2.59;100.00;101743.19;5069467;28;20040;-66
2023/03/05 07:23:49;;;;;;;9.00;5.60;;;;;;;2.62;100.00;101735.75;5069718;28;20443;-66
2023/03/05 07:26:15;;;;;;;10.90;5.97;;;;;;;2.66;100.00;101731.75;5069444;28;20033;-66
2023/03/05 07:28:42;;;;;;;9.63;5.40;;;;;;;2.69;100.00;101737.13;5069085;28;20118;-66
2023/03/05 07:31:12;;;;;;;10.90;5.60;;;;;;;2.70;100.00;101731.25;5069613;28;20035;-66
2023/03/05 07:33:37;;;;;;;6.80;5.13;;;;;;;2.70;100.00;101715.88;5068371;28;20035;-66
2023/03/05 07:36:06;;;;;;;7.80;5.10;;;;;;;2.71;100.00;101723.69;5069488;28;20028;-66
2023/03/05 07:38:31;;;;;;;8.10;4.77;;;;;;;2.73;100.00;101726.34;5069083;28;20054;-66
2023/03/05 07:41:04;;;;;;;11.70;4.93;;;;;;;2.75;100.00;101719.69;5069133;28;20024;-66
2023/03/05 07:43:30;;;;;;;8.47;4.60;;;;;;;2.79;100.00;101724.25;5068898;28;20017;-66
2023/03/05 07:45:55;;;;;;;8.27;4.63;;;;;;;2.83;100.00;101728.84;5069126;28;20121;-66
2023/03/05 07:48:20;;;;;;;7.63;4.80;;;;;;;2.88;100.00;101729.19;5068611;28;20412;-66
2023/03/05 07:50:46;;;;;;;8.10;4.67;;;;;;;2.92;100.00;101732.88;5069210;28;20467;-66
2023/03/05 07:53:13;;;;;;;8.30;4.67;;;;;;;2.93;100.00;101730.44;5069031;28;20051;-66
2023/03/05 07:55:45;;;;;;;8.10;3.90;;;;;;;2.96;100.00;101724.69;5068764;28;20020;-66
2023/03/05 07:58:12;;;;;;;8.07;4.77;;;;;;;2.99;100.00;101719.78;5068993;28;20469;-66
2023/03/05 08:00:39;;;;;;;10.93;5.37;;;;;;;3.02;100.00;101725.16;5068551;28;20032;-66
2023/03/05 08:03:04;;;;;;;6.93;4.37;;;;;;;3.08;100.00;101724.72;5068801;28;20549;-66
2023/03/05 08:05:29;;;;;;;6.77;3.33;;;;;;;3.11;100.00;101710.47;5068772;28;20048;-66
2023/03/05 08:07:55;;;;;;;9.40;3.57;;;;;;;3.15;100.00;101714.16;5068725;28;20024;-66
2023/03/05 08:10:20;;;;;;;7.50;3.93;;;;;;;3.20;100.00;101709.41;5068225;28;20078;-66
2023/03/05 08:12:45;;;;;;;4.00;2.83;;;;;;;3.26;100.00;101714.13;5068569;28;20027;-66
2023/03/05 08:15:10;;;;;;;4.75;2.80;;;;;;;3.30;100.00;101706.78;5068453;28;20027;-66
2023/03/05 08:17:36;;;;;;;7.70;2.83;;;;;;;3.35;100.00;101712.22;5068717;28;20024;-66
2023/03/05 08:20:04;;;;;;;6.23;2.80;;;;;;;3.36;100.00;101707.22;5068479;28;20477;-66
2023/03/05 08:22:33;;;;;;;4.83;2.90;;;;;;;3.36;100.00;101709.78;5068276;28;20036;-66
2023/03/05 08:24:58;;;;;;;5.67;3.17;;;;;;;3.38;100.00;101704.81;5068709;28;20028;-66
2023/03/05 08:27:24;;;;;;;5.40;2.70;;;;;;;3.40;100.00;101702.34;5067704;28;20031;-66
2023/03/05 08:29:49;;;;;;;5.50;2.80;;;;;;;3.44;100.00;101700.13;5068660;28;20025;-66
2023/03/05 08:32:15;;;;;;;4.30;2.43;;;;;;;3.50;100.00;101701.34;5066614;28;20020;-66
2023/03/05 08:34:40;;;;;;;5.63;2.53;;;;;;;3.53;100.00;101699.91;5067081;28;20048;-66
2023/03/05 08:37:08;;;;;;;6.53;2.70;;;;;;;3.59;100.00;101694.34;5066932;28;20029;-67
2023/03/05 08:39:33;;;;;;;4.20;2.20;;;;;;;3.64;100.00;101692.13;5068505;28;20047;-66
2023/03/05 08:41:58;;;;;;;2.37;2.17;;;;;;;3.66;100.00;101690.56;5067498;28;20025;-66
2023/03/05 08:44:24;;;;;;;3.20;2.50;;;;;;;3.70;100.00;101684.91;5067966;28;20046;-66
2023/03/05 08:46:49;;;;;;;6.70;2.28;;;;;;;3.71;100.00;101684.09;5068305;28;20020;-66
2023/03/05 08:49:14;;;;;;;4.13;2.03;;;;;;;3.75;100.00;101678.44;5068087;28;20478;-66
2023/03/05 08:51:40;;;;;;;2.20;2.00;;;;;;;3.82;100.00;101678.09;5067846;28;20049;-66
2023/03/05 08:54:06;;;;;;;5.65;1.83;;;;;;;3.93;100.00;101678.00;5067448;28;20362;-66
2023/03/05 08:56:33;;;;;;;4.80;1.90;;;;;;;3.99;100.00;101670.75;5067628;28;20057;-66
2023/03/05 08:58:58;;;;;;;2.70;1.83;;;;;;;4.01;100.00;101668.28;5067346;28;20100;-66
2023/03/05 09:01:23;;;;;;;3.92;1.80;;;;;;;4.06;100.00;101666.94;5067915;28;20154;-66
2023/03/05 09:03:49;;;;;;;2.97;1.92;;;;;;;4.14;100.00;101665.81;5067728;28;20058;-66
2023/03/05 09:06:14;;;;;;;2.55;1.77;;;;;;;4.31;100.00;101667.03;5067552;28;20096;-66
2023/03/05 09:08:40;;;;;;;3.35;2.00;;;;;;;4.40;100.00;101663.31;5066743;28;20016;-66
2023/03/05 09:11:08;;;;;;;3.72;1.83;;;;;;;4.48;100.00;101662.19;5067193;28;20024;-66
2023/03/05 09:13:35;;;;;;;4.85;1.58;;;;;;;4.50;100.00;101668.31;5067596;28;20558;-66
2023/03/05 09:16:06;;;;;;;4.07;2.47;;;;;;;4.49;100.00;101663.97;5067789;28;20028;-66
2023/03/05 09:18:31;;;;;;;3.53;1.92;;;;;;;4.48;100.00;101657.03;5067988;28;20481;-66
2023/03/05 09:20:57;;;;;;;3.83;2.30;;;;;;;4.47;100.00;101654.38;5067678;28;20039;-66
2023/03/05 09:23:23;;;;;;;2.75;1.55;;;;;;;4.47;100.00;101654.38;5067292;28;20043;-66
2023/03/05 09:25:49;;;;;;;2.15;1.58;;;;;;;4.46;100.00;101650.03;5067746;28;20510;-66
2023/03/05 09:28:15;;;;;;;2.15;1.40;;;;;;;4.48;100.00;101646.78;5067288;28;20055;-67
2023/03/05 09:30:40;;;;;;;4.82;1.80;;;;;;;4.52;100.00;101648.78;5067258;28;20108;-67
2023/03/05 09:33:06;;;;;;;3.80;1.63;;;;;;;4.64;100.00;101638.47;5067731;28;20020;-66
2023/03/05 09:35:35;;;;;;;3.33;1.60;;;;;;;4.79;100.00;101636.06;5066929;28;20031;-66
2023/03/05 09:38:01;;;;;;;3.13;1.30;;;;;;;4.91;100.00;101637.72;5067376;28;20028;-66
2023/03/05 09:40:35;;;;;;;1.80;1.08;;;;;;;4.95;100.00;101637.09;5067419;28;20528;-66
2023/03/05 09:43:16;;;;;;;3.75;1.40;;;;;;;5.00;100.00;101632.31;5068075;28;20445;-66
2023/03/05 09:45:56;;;;;;;2.72;1.10;;;;;;;5.00;100.00;101638.31;5067103;28;20126;-67
2023/03/05 09:48:29;;;;;;;2.58;1.27;;;;;;;5.00;100.00;101637.44;5067211;28;20024;-66
2023/03/05 09:51:04;;;;;;;3.05;1.30;;;;;;;4.99;100.00;101631.41;5066930;28;20429;-67
2023/03/05 09:54:05;;;;;;;0.93;0.63;;;;;;;5.00;100.00;101633.16;5066733;28;20024;-67
2023/03/05 09:56:44;;;;;;;2.75;1.15;;;;;;;5.01;100.00;101624.69;5069231;28;20040;-66
2023/03/05 09:59:34;;;;;;;2.42;1.40;;;;;;;5.02;100.00;101630.69;5070598;28;20056;-66
2023/03/05 10:02:03;;;;;;;1.33;0.93;;;;;;;5.00;100.00;101628.03;5070977;28;20086;-66
2023/03/05 10:04:56;;;;;;;3.00;1.20;;;;;;;4.98;100.00;101624.50;5071213;28;20039;-66
2023/03/05 10:07:29;;;;;;;2.00;0.95;;;;;;;4.95;100.00;101624.25;5067469;28;20033;-66
2023/03/05 10:09:59;;;;;;;2.45;0.80;;;;;;;4.91;100.00;101619.72;5070945;28;20083;-66
2023/03/05 10:12:42;;;;;;;1.17;0.80;;;;;;;4.85;100.00;101616.72;5070725;28;20028;-66
2023/03/05 10:15:19;;;;;;;1.80;0.65;;;;;;;4.80;100.00;101616.44;5070171;28;20028;-66
2023/03/05 10:17:51;;;;;;;1.73;1.13;;;;;;;4.73;100.00;101612.53;5070501;28;20492;-67
2023/03/05 10:20:31;;;;;;;1.33;0.88;;;;;;;4.69;100.00;101613.13;5070888;28;20028;-67
2023/03/05 10:23:18;;;;;;;3.22;0.93;;;;;;;4.70;100.00;101607.19;5070709;28;20039;-66
2023/03/05 10:26:06;;;;;;;0.75;0.55;;;;;;;4.75;100.00;101610.09;5069732;28;20032;-66
2023/03/05 10:29:02;;;;;;;2.22;0.80;;;;;;;4.85;100.00;101603.88;5070457;28;20074;-66
2023/03/05 10:31:45;;;;;;;1.30;0.75;;;;;;;4.94;100.00;101601.94;5070460;28;20130;-67
2023/03/05 10:34:30;;;;;;;1.27;0.70;;;;;;;4.99;100.00;101590.31;5070549;28;20063;-66
2023/03/05 10:37:40;;;;;;;0.80;0.60;;;;;;;5.11;100.00;101589.34;5070736;28;20044;-66
2023/03/05 10:40:35;;;;;;;1.55;0.60;;;;;;;5.19;100.00;101588.16;5070374;28;20492;-66
2023/03/05 10:43:12;;;;;;;2.28;0.70;;;;;;;5.23;100.00;101590.16;5071143;28;20074;-67
2023/03/05 10:45:41;;;;;;;1.98;0.68;;;;;;;5.26;100.00;101579.16;5070271;28;20089;-67
2023/03/05 10:48:23;;;;;;;2.25;0.70;;;;;;;5.27;100.00;101578.41;5070373;28;20025;-67
2023/03/05 10:50:52;;;;;;;0.88;0.80;;;;;;;5.24;100.00;101576.50;5070100;28;20052;-66
2023/03/05 10:53:24;;;;;;;2.85;1.00;;;;;;;5.19;100.00;101582.13;5070318;28;20032;-67
2023/03/05 10:55:54;;;;;;;2.58;1.15;;;;;;;5.14;100.00;101579.25;5070027;28;20441;-66
2023/03/05 10:58:20;;;;;;;1.23;0.80;;;;;;;5.09;100.00;101575.50;5069619;28;20028;-66
2023/03/05 11:01:01;;;;;;;1.92;0.90;;;;;;;5.01;100.00;101573.31;5069729;28;20025;-66
2023/03/05 11:03:55;;;;;;;0.93;0.80;;;;;;;4.97;100.00;101571.31;5069895;28;20028;-66
2023/03/05 11:06:44;;;;;;;1.88;0.93;;;;;;;4.93;100.00;101564.19;5069461;28;20036;-66
2023/03/05 11:09:27;;;;;;;0.90;0.70;;;;;;;4.89;100.00;101563.09;5069608;28;20437;-66
2023/03/05 11:11:59;;;;;;;4.13;0.70;;;;;;;4.91;100.00;101563.22;5069636;28;20426;-67
2023/03/05 11:14:30;;;;;;;1.95;0.65;;;;;;;4.93;100.00;101561.63;5069730;28;20099;-66
2023/03/05 11:16:56;;;;;;;2.08;0.80;;;;;;;4.99;100.00;101554.34;5069651;28;20025;-67
2023/03/05 11:19:31;;;;;;;2.03;0.50;;;;;;;5.11;100.00;101543.97;5069821;28;20023;-67
2023/03/05 11:22:14;;;;;;;2.33;0.60;;;;;;;5.24;100.00;101545.66;5068119;28;20108;-66
2023/03/05 11:24:40;;;;;;;1.17;0.60;;;;;;;5.34;100.00;101536.00;5069809;28;20032;-67
2023/03/05 11:27:31;;;;;;;0.80;0.55;;;;;;;5.38;100.00;101535.38;5069109;28;20032;-66